sensor_id;sensor_type;location;lat;lon;timestamp;pressure;altitude;pressure_sealevel;temperature;humidity
61436;BME280;47304;47.456;19.160;2023-08-20T00:00:21;100549.00;;;21.79;81.98
61436;BME280;47304;47.456;19.160;2023-08-20T00:02:49;100547.35;;;21.77;82.09
61436;BME280;47304;47.456;19.160;2023-08-20T00:05:18;100542.73;;;21.76;82.00
61436;BME280;47304;47.456;19.160;2023-08-20T00:07:44;100539.20;;;21.75;82.12
61436;BME280;47304;47.456;19.160;2023-08-20T00:10:11;100542.41;;;21.75;82.02
61436;BME280;47304;47.456;19.160;2023-08-20T00:12:37;100544.04;;;21.75;82.16
61436;BME280;47304;47.456;19.160;2023-08-20T00:15:04;100543.36;;;21.74;82.00
61436;BME280;47304;47.456;19.160;2023-08-20T00:17:33;100540.09;;;21.73;82.03
61436;BME280;47304;47.456;19.160;2023-08-20T00:20:00;100536.52;;;21.71;82.13
61436;BME280;47304;47.456;19.160;2023-08-20T00:22:27;100538.18;;;21.70;82.02
61436;BME280;47304;47.456;19.160;2023-08-20T00:24:54;100537.15;;;21.69;82.04
61436;BME280;47304;47.456;19.160;2023-08-20T00:27:21;100536.85;;;21.68;82.03
61436;BME280;47304;47.456;19.160;2023-08-20T00:29:48;100531.77;;;21.66;82.07
61436;BME280;47304;47.456;19.160;2023-08-20T00:32:15;100531.86;;;21.63;82.15
61436;BME280;47304;47.456;19.160;2023-08-20T00:34:42;100532.60;;;21.63;82.19
61436;BME280;47304;47.456;19.160;2023-08-20T00:37:08;100531.39;;;21.62;82.26
61436;BME280;47304;47.456;19.160;2023-08-20T00:39:35;100529.48;;;21.61;82.59
61436;BME280;47304;47.456;19.160;2023-08-20T00:42:02;100531.31;;;21.60;82.49
61436;BME280;47304;47.456;19.160;2023-08-20T00:44:28;100529.79;;;21.58;82.45
61436;BME280;47304;47.456;19.160;2023-08-20T00:46:55;100532.67;;;21.57;82.35
61436;BME280;47304;47.456;19.160;2023-08-20T00:49:22;100536.60;;;21.57;82.45
61436;BME280;47304;47.456;19.160;2023-08-20T00:51:50;100537.88;;;21.56;82.26
61436;BME280;47304;47.456;19.160;2023-08-20T00:54:17;100530.05;;;21.55;82.36
61436;BME280;47304;47.456;19.160;2023-08-20T00:56:44;100532.57;;;21.55;82.03
61436;BME280;47304;47.456;19.160;2023-08-20T00:59:11;100531.98;;;21.52;81.87
61436;BME280;47304;47.456;19.160;2023-08-20T01:01:37;100535.25;;;21.50;81.84
61436;BME280;47304;47.456;19.160;2023-08-20T01:04:04;100533.68;;;21.50;81.86
61436;BME280;47304;47.456;19.160;2023-08-20T01:06:55;100538.18;;;21.49;81.60
61436;BME280;47304;47.456;19.160;2023-08-20T01:09:50;100540.20;;;21.47;81.56
61436;BME280;47304;47.456;19.160;2023-08-20T01:12:22;100544.73;;;21.46;81.64
61436;BME280;47304;47.456;19.160;2023-08-20T01:14:49;100543.70;;;21.45;81.65
61436;BME280;47304;47.456;19.160;2023-08-20T01:17:15;100546.03;;;21.44;81.61
61436;BME280;47304;47.456;19.160;2023-08-20T01:19:42;100545.77;;;21.43;81.35
61436;BME280;47304;47.456;19.160;2023-08-20T01:22:19;100546.52;;;21.42;81.64
61436;BME280;47304;47.456;19.160;2023-08-20T01:30:34;100546.95;;;21.44;81.68
61436;BME280;47304;47.456;19.160;2023-08-20T01:33:01;100545.81;;;21.41;81.51
61436;BME280;47304;47.456;19.160;2023-08-20T01:35:28;100544.27;;;21.40;81.59
61436;BME280;47304;47.456;19.160;2023-08-20T01:37:54;100542.73;;;21.38;81.53
61436;BME280;47304;47.456;19.160;2023-08-20T01:40:21;100541.20;;;21.37;81.58
61436;BME280;47304;47.456;19.160;2023-08-20T01:42:47;100539.65;;;21.35;81.56
61436;BME280;47304;47.456;19.160;2023-08-20T01:45:14;100539.20;;;21.33;81.59
61436;BME280;47304;47.456;19.160;2023-08-20T01:47:40;100535.33;;;21.32;81.68
61436;BME280;47304;47.456;19.160;2023-08-20T01:50:07;100537.71;;;21.30;81.57
61436;BME280;47304;47.456;19.160;2023-08-20T01:52:34;100534.09;;;21.28;81.58
61436;BME280;47304;47.456;19.160;2023-08-20T01:55:01;100537.45;;;21.24;81.64
61436;BME280;47304;47.456;19.160;2023-08-20T01:57:27;100536.17;;;21.21;81.59
61436;BME280;47304;47.456;19.160;2023-08-20T01:59:54;100540.36;;;21.18;81.56
61436;BME280;47304;47.456;19.160;2023-08-20T02:02:20;100540.08;;;21.17;81.89
61436;BME280;47304;47.456;19.160;2023-08-20T02:04:47;100540.19;;;21.14;81.92
61436;BME280;47304;47.456;19.160;2023-08-20T02:07:13;100541.11;;;21.13;81.93
61436;BME280;47304;47.456;19.160;2023-08-20T02:31:14;100526.84;;;21.09;82.66
61436;BME280;47304;47.456;19.160;2023-08-20T02:33:41;100529.52;;;21.05;82.68
61436;BME280;47304;47.456;19.160;2023-08-20T02:36:07;100526.15;;;21.00;82.52
61436;BME280;47304;47.456;19.160;2023-08-20T02:38:34;100530.23;;;20.96;82.49
61436;BME280;47304;47.456;19.160;2023-08-20T02:41:01;100527.01;;;20.93;82.78
61436;BME280;47304;47.456;19.160;2023-08-20T02:43:28;100522.10;;;20.91;83.00
61436;BME280;47304;47.456;19.160;2023-08-20T02:45:55;100525.86;;;20.90;82.83
61436;BME280;47304;47.456;19.160;2023-08-20T02:48:22;100522.82;;;20.90;82.91
61436;BME280;47304;47.456;19.160;2023-08-20T02:50:48;100525.70;;;20.90;82.96
61436;BME280;47304;47.456;19.160;2023-08-20T18:30:10;100515.97;;;28.02;59.50
61436;BME280;47304;47.456;19.160;2023-08-20T18:32:37;100517.86;;;27.93;59.53
61436;BME280;47304;47.456;19.160;2023-08-20T18:35:05;100521.42;;;27.86;59.92
61436;BME280;47304;47.456;19.160;2023-08-20T18:37:31;100524.10;;;27.79;60.22
61436;BME280;47304;47.456;19.160;2023-08-20T18:39:58;100526.38;;;27.72;60.60
61436;BME280;47304;47.456;19.160;2023-08-20T18:42:25;100525.30;;;27.64;60.62
61436;BME280;47304;47.456;19.160;2023-08-20T18:44:51;100527.64;;;27.56;60.94
61436;BME280;47304;47.456;19.160;2023-08-20T18:47:18;100533.10;;;27.50;61.45
61436;BME280;47304;47.456;19.160;2023-08-20T18:49:44;100535.80;;;27.45;61.66
61436;BME280;47304;47.456;19.160;2023-08-20T18:52:11;100536.22;;;27.38;61.87
61436;BME280;47304;47.456;19.160;2023-08-20T18:54:37;100536.81;;;27.32;62.39
61436;BME280;47304;47.456;19.160;2023-08-20T18:57:04;100536.67;;;27.26;62.58
61436;BME280;47304;47.456;19.160;2023-08-20T18:59:31;100539.19;;;27.21;62.70
61436;BME280;47304;47.456;19.160;2023-08-20T19:01:57;100541.50;;;27.16;63.16
61436;BME280;47304;47.456;19.160;2023-08-20T19:04:24;100543.11;;;27.11;63.25
61436;BME280;47304;47.456;19.160;2023-08-20T19:06:51;100542.56;;;27.05;63.57
61436;BME280;47304;47.456;19.160;2023-08-20T19:09:17;100542.02;;;27.00;63.75
61436;BME280;47304;47.456;19.160;2023-08-20T19:11:44;100543.41;;;26.95;64.07
61436;BME280;47304;47.456;19.160;2023-08-20T19:14:10;100543.68;;;26.91;64.22
61436;BME280;47304;47.456;19.160;2023-08-20T19:16:37;100548.80;;;26.87;64.51
61436;BME280;47304;47.456;19.160;2023-08-20T19:19:04;100548.34;;;26.83;64.64
61436;BME280;47304;47.456;19.160;2023-08-20T19:21:30;100549.85;;;26.79;64.76
61436;BME280;47304;47.456;19.160;2023-08-20T19:23:57;100553.71;;;26.75;65.00
61436;BME280;47304;47.456;19.160;2023-08-20T19:26:23;100556.19;;;26.70;65.05
61436;BME280;47304;47.456;19.160;2023-08-20T19:28:50;100557.80;;;26.64;65.35
61436;BME280;47304;47.456;19.160;2023-08-20T19:31:17;100560.66;;;26.59;65.64
61436;BME280;47304;47.456;19.160;2023-08-20T19:33:44;100562.44;;;26.54;65.78
61436;BME280;47304;47.456;19.160;2023-08-20T19:36:10;100564.95;;;26.48;66.12
61436;BME280;47304;47.456;19.160;2023-08-20T19:38:37;100565.17;;;26.42;66.42
61436;BME280;47304;47.456;19.160;2023-08-20T19:41:03;100566.80;;;26.36;66.68
61436;BME280;47304;47.456;19.160;2023-08-20T19:43:30;100569.45;;;26.31;66.65
61436;BME280;47304;47.456;19.160;2023-08-20T19:45:56;100568.83;;;26.23;66.31
61436;BME280;47304;47.456;19.160;2023-08-20T19:48:23;100567.61;;;26.17;66.45
61436;BME280;47304;47.456;19.160;2023-08-20T19:50:50;100571.02;;;26.11;66.68
61436;BME280;47304;47.456;19.160;2023-08-20T19:53:16;100574.36;;;26.06;66.91
61436;BME280;47304;47.456;19.160;2023-08-20T19:55:42;100576.10;;;26.01;67.06
61436;BME280;47304;47.456;19.160;2023-08-20T19:58:09;100576.96;;;25.96;67.00
61436;BME280;47304;47.456;19.160;2023-08-20T20:00:36;100578.88;;;25.91;67.36
61436;BME280;47304;47.456;19.160;2023-08-20T20:03:02;100583.30;;;25.86;67.45
61436;BME280;47304;47.456;19.160;2023-08-20T20:05:29;100584.27;;;25.82;67.80
61436;BME280;47304;47.456;19.160;2023-08-20T20:07:57;100587.83;;;25.77;67.66
61436;BME280;47304;47.456;19.160;2023-08-20T20:10:24;100590.21;;;25.73;67.70
61436;BME280;47304;47.456;19.160;2023-08-20T20:12:50;100591.91;;;25.68;67.95
61436;BME280;47304;47.456;19.160;2023-08-20T20:15:17;100590.73;;;25.64;68.27
61436;BME280;47304;47.456;19.160;2023-08-20T20:17:44;100592.83;;;25.59;68.53
61436;BME280;47304;47.456;19.160;2023-08-20T20:20:11;100594.29;;;25.53;68.67
61436;BME280;47304;47.456;19.160;2023-08-20T20:22:41;100595.13;;;25.47;68.75
61436;BME280;47304;47.456;19.160;2023-08-20T20:25:08;100596.71;;;25.45;69.20
61436;BME280;47304;47.456;19.160;2023-08-20T20:27:35;100599.48;;;25.41;69.20
61436;BME280;47304;47.456;19.160;2023-08-20T20:30:04;100594.92;;;25.38;69.19
61436;BME280;47304;47.456;19.160;2023-08-20T20:32:32;100595.94;;;25.36;69.52
61436;BME280;47304;47.456;19.160;2023-08-20T21:29:39;100613.08;;;24.74;72.16
61436;BME280;47304;47.456;19.160;2023-08-20T21:32:07;100608.56;;;24.68;72.37
61436;BME280;47304;47.456;19.160;2023-08-20T21:34:34;100606.02;;;24.66;72.34
61436;BME280;47304;47.456;19.160;2023-08-20T21:37:01;100606.75;;;24.62;72.06
61436;BME280;47304;47.456;19.160;2023-08-20T21:39:28;100609.25;;;24.59;72.03
61436;BME280;47304;47.456;19.160;2023-08-20T21:41:54;100612.28;;;24.56;72.26
61436;BME280;47304;47.456;19.160;2023-08-20T21:44:21;100612.64;;;24.53;71.84
61436;BME280;47304;47.456;19.160;2023-08-20T21:46:52;100615.48;;;24.50;72.11
61436;BME280;47304;47.456;19.160;2023-08-20T21:49:19;100614.42;;;24.46;71.99
61436;BME280;47304;47.456;19.160;2023-08-20T21:51:45;100614.17;;;24.44;71.76
61436;BME280;47304;47.456;19.160;2023-08-20T21:54:12;100608.80;;;24.41;71.72
61436;BME280;47304;47.456;19.160;2023-08-20T21:56:38;100607.73;;;24.37;71.75
61436;BME280;47304;47.456;19.160;2023-08-20T21:59:05;100607.52;;;24.35;71.79
61436;BME280;47304;47.456;19.160;2023-08-20T22:01:31;100608.02;;;24.32;71.81
61436;BME280;47304;47.456;19.160;2023-08-20T22:03:58;100607.80;;;24.29;71.92
61436;BME280;47304;47.456;19.160;2023-08-20T22:06:25;100611.33;;;24.27;72.29
61436;BME280;47304;47.456;19.160;2023-08-20T22:08:51;100610.73;;;24.25;72.52
61436;BME280;47304;47.456;19.160;2023-08-20T22:11:18;100611.72;;;24.23;72.13
61436;BME280;47304;47.456;19.160;2023-08-20T22:13:44;100616.85;;;24.21;72.18
61436;BME280;47304;47.456;19.160;2023-08-20T22:16:11;100616.58;;;24.19;72.23
61436;BME280;47304;47.456;19.160;2023-08-20T22:18:38;100617.75;;;24.18;72.38
61436;BME280;47304;47.456;19.160;2023-08-20T22:21:04;100619.27;;;24.16;72.56
61436;BME280;47304;47.456;19.160;2023-08-20T22:23:31;100617.11;;;24.12;72.81
61436;BME280;47304;47.456;19.160;2023-08-20T22:25:57;100617.77;;;24.10;73.19
61436;BME280;47304;47.456;19.160;2023-08-20T22:28:24;100624.85;;;24.08;73.18
61436;BME280;47304;47.456;19.160;2023-08-20T22:30:50;100622.64;;;24.06;73.19
61436;BME280;47304;47.456;19.160;2023-08-20T22:33:17;100620.16;;;24.02;72.90
61436;BME280;47304;47.456;19.160;2023-08-20T22:35:50;100620.49;;;23.99;73.12
61436;BME280;47304;47.456;19.160;2023-08-20T22:38:17;100621.04;;;23.96;73.18
61436;BME280;47304;47.456;19.160;2023-08-20T22:40:43;100618.98;;;23.93;73.67
61436;BME280;47304;47.456;19.160;2023-08-20T22:43:10;100615.20;;;23.90;73.79
61436;BME280;47304;47.456;19.160;2023-08-20T22:45:36;100613.41;;;23.87;74.05
61436;BME280;47304;47.456;19.160;2023-08-20T22:48:03;100613.41;;;23.83;74.15
61436;BME280;47304;47.456;19.160;2023-08-20T22:50:30;100614.10;;;23.80;74.27
61436;BME280;47304;47.456;19.160;2023-08-20T22:52:57;100616.25;;;23.77;74.43
61436;BME280;47304;47.456;19.160;2023-08-20T22:55:24;100611.98;;;23.73;74.59
61436;BME280;47304;47.456;19.160;2023-08-20T22:57:50;100607.16;;;23.70;74.66
61436;BME280;47304;47.456;19.160;2023-08-20T23:00:17;100609.97;;;23.67;74.88
61436;BME280;47304;47.456;19.160;2023-08-20T23:02:44;100609.77;;;23.64;74.93
61436;BME280;47304;47.456;19.160;2023-08-20T23:05:11;100608.67;;;23.61;75.17
61436;BME280;47304;47.456;19.160;2023-08-20T23:07:38;100608.86;;;23.57;75.36
61436;BME280;47304;47.456;19.160;2023-08-20T23:10:05;100605.79;;;23.54;75.36
61436;BME280;47304;47.456;19.160;2023-08-20T23:12:31;100604.02;;;23.50;75.42
61436;BME280;47304;47.456;19.160;2023-08-20T23:14:58;100603.59;;;23.48;75.50
61436;BME280;47304;47.456;19.160;2023-08-20T23:17:24;100605.88;;;23.45;75.54
61436;BME280;47304;47.456;19.160;2023-08-20T23:19:51;100600.83;;;23.43;75.68
61436;BME280;47304;47.456;19.160;2023-08-20T23:22:18;100597.77;;;23.39;75.89
61436;BME280;47304;47.456;19.160;2023-08-20T23:24:44;100597.04;;;23.36;75.89
61436;BME280;47304;47.456;19.160;2023-08-20T23:27:11;100597.53;;;23.34;76.06
61436;BME280;47304;47.456;19.160;2023-08-20T23:29:38;100596.78;;;23.31;76.26
61436;BME280;47304;47.456;19.160;2023-08-20T23:32:04;100597.98;;;23.28;76.37
61436;BME280;47304;47.456;19.160;2023-08-20T23:34:31;100600.81;;;23.25;76.28
61436;BME280;47304;47.456;19.160;2023-08-20T23:36:58;100601.68;;;23.22;76.50
61436;BME280;47304;47.456;19.160;2023-08-20T23:39:24;100600.89;;;23.20;76.57
61436;BME280;47304;47.456;19.160;2023-08-20T23:41:51;100600.26;;;23.18;76.90
61436;BME280;47304;47.456;19.160;2023-08-20T23:44:17;100604.30;;;23.15;76.92
61436;BME280;47304;47.456;19.160;2023-08-20T23:46:44;100607.66;;;23.12;76.85
61436;BME280;47304;47.456;19.160;2023-08-20T23:49:14;100608.89;;;23.09;76.73
61436;BME280;47304;47.456;19.160;2023-08-20T23:51:41;100603.86;;;23.06;76.97
61436;BME280;47304;47.456;19.160;2023-08-20T23:54:07;100602.08;;;23.02;77.06
61436;BME280;47304;47.456;19.160;2023-08-20T23:56:34;100606.07;;;23.01;77.33
61436;BME280;47304;47.456;19.160;2023-08-20T23:59:01;100605.14;;;22.98;77.35
